sensor_id;sensor_type;location;lat;lon;timestamp;temperature;humidity
12446;DHT22;6287;50.984;7.022;2022-09-28T00:00:44;9.40;99.90
12446;DHT22;6287;50.984;7.022;2022-09-28T00:03:12;9.40;99.90
12446;DHT22;6287;50.984;7.022;2022-09-28T00:05:40;9.30;99.90
12446;DHT22;6287;50.984;7.022;2022-09-28T00:08:05;9.30;99.90
12446;DHT22;6287;50.984;7.022;2022-09-28T00:10:31;9.30;99.90
12446;DHT22;6287;50.984;7.022;2022-09-28T00:12:57;9.20;99.90
12446;DHT22;6287;50.984;7.022;2022-09-28T00:15:24;9.30;99.90
12446;DHT22;6287;50.984;7.022;2022-09-28T00:17:52;9.20;99.90
12446;DHT22;6287;50.984;7.022;2022-09-28T00:20:20;9.20;99.90
12446;DHT22;6287;50.984;7.022;2022-09-28T00:22:47;9.20;99.90
12446;DHT22;6287;50.984;7.022;2022-09-28T00:25:12;9.20;99.90
12446;DHT22;6287;50.984;7.022;2022-09-28T00:27:40;9.10;99.90
12446;DHT22;6287;50.984;7.022;2022-09-28T00:30:07;9.10;99.90
12446;DHT22;6287;50.984;7.022;2022-09-28T00:32:35;9.00;99.90
12446;DHT22;6287;50.984;7.022;2022-09-28T00:35:03;9.10;99.90
12446;DHT22;6287;50.984;7.022;2022-09-28T00:37:31;9.10;99.90
12446;DHT22;6287;50.984;7.022;2022-09-28T00:39:57;9.00;99.90
12446;DHT22;6287;50.984;7.022;2022-09-28T00:42:24;9.00;99.90
12446;DHT22;6287;50.984;7.022;2022-09-28T00:47:20;9.00;99.90
12446;DHT22;6287;50.984;7.022;2022-09-28T00:54:56;9.10;99.90
12446;DHT22;6287;50.984;7.022;2022-09-28T00:57:23;9.10;99.90
12446;DHT22;6287;50.984;7.022;2022-09-28T00:59:50;9.10;99.90
12446;DHT22;6287;50.984;7.022;2022-09-28T01:02:19;9.10;99.90
12446;DHT22;6287;50.984;7.022;2022-09-28T01:04:45;9.00;99.90
12446;DHT22;6287;50.984;7.022;2022-09-28T01:07:15;9.00;99.90
12446;DHT22;6287;50.984;7.022;2022-09-28T01:09:42;9.00;99.90
12446;DHT22;6287;50.984;7.022;2022-09-28T01:12:10;9.00;99.90
12446;DHT22;6287;50.984;7.022;2022-09-28T01:14:37;9.00;99.90
12446;DHT22;6287;50.984;7.022;2022-09-28T01:17:16;9.00;99.90
12446;DHT22;6287;50.984;7.022;2022-09-28T01:23:07;9.00;99.90
12446;DHT22;6287;50.984;7.022;2022-09-28T01:26:06;9.00;99.90
12446;DHT22;6287;50.984;7.022;2022-09-28T01:28:34;9.00;99.90
12446;DHT22;6287;50.984;7.022;2022-09-28T01:31:12;9.00;99.90
12446;DHT22;6287;50.984;7.022;2022-09-28T01:33:44;9.00;99.90
12446;DHT22;6287;50.984;7.022;2022-09-28T01:38:58;9.00;99.90
12446;DHT22;6287;50.984;7.022;2022-09-28T01:41:30;8.90;99.90
12446;DHT22;6287;50.984;7.022;2022-09-28T01:43:59;8.90;99.90
12446;DHT22;6287;50.984;7.022;2022-09-28T01:46:39;8.90;99.90
12446;DHT22;6287;50.984;7.022;2022-09-28T01:49:34;8.90;99.90
12446;DHT22;6287;50.984;7.022;2022-09-28T02:01:08;9.00;99.90
12446;DHT22;6287;50.984;7.022;2022-09-28T02:03:47;9.00;99.90
12446;DHT22;6287;50.984;7.022;2022-09-28T02:06:21;9.00;99.90
12446;DHT22;6287;50.984;7.022;2022-09-28T02:08:53;9.00;99.90
12446;DHT22;6287;50.984;7.022;2022-09-28T02:11:21;9.00;99.90
12446;DHT22;6287;50.984;7.022;2022-09-28T02:13:53;9.10;99.90
12446;DHT22;6287;50.984;7.022;2022-09-28T02:16:43;9.10;99.90
12446;DHT22;6287;50.984;7.022;2022-09-28T02:19:23;9.10;99.90
12446;DHT22;6287;50.984;7.022;2022-09-28T02:26:55;9.10;99.90
12446;DHT22;6287;50.984;7.022;2022-09-28T02:29:23;9.10;99.90
12446;DHT22;6287;50.984;7.022;2022-09-28T02:31:51;9.10;99.90
12446;DHT22;6287;50.984;7.022;2022-09-28T02:34:17;9.00;99.90
12446;DHT22;6287;50.984;7.022;2022-09-28T02:36:43;9.00;99.90
12446;DHT22;6287;50.984;7.022;2022-09-28T02:39:15;9.00;99.90
12446;DHT22;6287;50.984;7.022;2022-09-28T02:44:47;9.00;99.90
12446;DHT22;6287;50.984;7.022;2022-09-28T03:01:28;9.00;99.90
12446;DHT22;6287;50.984;7.022;2022-09-28T03:06:58;9.10;99.90
12446;DHT22;6287;50.984;7.022;2022-09-28T03:09:53;9.10;99.90
12446;DHT22;6287;50.984;7.022;2022-09-28T03:12:22;9.10;99.90
12446;DHT22;6287;50.984;7.022;2022-09-28T03:15:05;9.10;99.90
12446;DHT22;6287;50.984;7.022;2022-09-28T03:17:31;9.10;99.90
12446;DHT22;6287;50.984;7.022;2022-09-28T03:19:57;9.10;99.90
12446;DHT22;6287;50.984;7.022;2022-09-28T03:22:22;9.20;99.90
12446;DHT22;6287;50.984;7.022;2022-09-28T03:24:50;9.20;99.90
12446;DHT22;6287;50.984;7.022;2022-09-28T03:27:15;9.20;99.90
12446;DHT22;6287;50.984;7.022;2022-09-28T03:29:41;9.20;99.90
12446;DHT22;6287;50.984;7.022;2022-09-28T03:32:06;9.20;99.90
12446;DHT22;6287;50.984;7.022;2022-09-28T03:34:32;9.20;99.90
12446;DHT22;6287;50.984;7.022;2022-09-28T03:36:59;9.30;99.90
12446;DHT22;6287;50.984;7.022;2022-09-28T03:39:25;9.30;99.90
12446;DHT22;6287;50.984;7.022;2022-09-28T03:41:50;9.30;99.90
12446;DHT22;6287;50.984;7.022;2022-09-28T03:44:16;9.30;99.90
12446;DHT22;6287;50.984;7.022;2022-09-28T03:46:41;9.30;99.90
12446;DHT22;6287;50.984;7.022;2022-09-28T03:49:08;9.30;99.90
12446;DHT22;6287;50.984;7.022;2022-09-28T03:51:36;9.30;99.90
12446;DHT22;6287;50.984;7.022;2022-09-28T03:54:07;9.30;99.90
12446;DHT22;6287;50.984;7.022;2022-09-28T03:56:32;9.30;99.90
12446;DHT22;6287;50.984;7.022;2022-09-28T03:58:58;9.20;99.90
12446;DHT22;6287;50.984;7.022;2022-09-28T04:01:25;9.30;99.90
12446;DHT22;6287;50.984;7.022;2022-09-28T04:03:54;9.20;99.90
12446;DHT22;6287;50.984;7.022;2022-09-28T04:06:21;9.30;99.90
12446;DHT22;6287;50.984;7.022;2022-09-28T04:08:46;9.20;99.90
12446;DHT22;6287;50.984;7.022;2022-09-28T04:11:12;9.20;99.90
12446;DHT22;6287;50.984;7.022;2022-09-28T04:13:37;9.20;99.90
12446;DHT22;6287;50.984;7.022;2022-09-28T04:16:03;9.20;99.90
12446;DHT22;6287;50.984;7.022;2022-09-28T04:18:30;9.30;99.90
12446;DHT22;6287;50.984;7.022;2022-09-28T04:21:04;9.20;99.90
12446;DHT22;6287;50.984;7.022;2022-09-28T04:23:39;9.20;99.90
12446;DHT22;6287;50.984;7.022;2022-09-28T04:26:12;9.20;99.90
12446;DHT22;6287;50.984;7.022;2022-09-28T04:28:41;9.20;99.90
12446;DHT22;6287;50.984;7.022;2022-09-28T04:31:26;9.20;99.90
12446;DHT22;6287;50.984;7.022;2022-09-28T04:33:52;9.20;99.90
12446;DHT22;6287;50.984;7.022;2022-09-28T04:36:20;9.20;99.90
12446;DHT22;6287;50.984;7.022;2022-09-28T04:41:18;9.20;99.90
12446;DHT22;6287;50.984;7.022;2022-09-28T04:43:46;9.20;99.90
12446;DHT22;6287;50.984;7.022;2022-09-28T04:46:12;9.20;99.90
12446;DHT22;6287;50.984;7.022;2022-09-28T04:48:37;9.20;99.90
12446;DHT22;6287;50.984;7.022;2022-09-28T04:51:03;9.30;99.90
12446;DHT22;6287;50.984;7.022;2022-09-28T04:53:29;9.30;99.90
12446;DHT22;6287;50.984;7.022;2022-09-28T04:56:12;9.30;99.90
12446;DHT22;6287;50.984;7.022;2022-09-28T04:58:43;9.30;99.90
12446;DHT22;6287;50.984;7.022;2022-09-28T05:01:17;9.30;99.90
12446;DHT22;6287;50.984;7.022;2022-09-28T05:03:44;9.30;99.90
12446;DHT22;6287;50.984;7.022;2022-09-28T05:06:14;9.30;99.90
12446;DHT22;6287;50.984;7.022;2022-09-28T05:08:41;9.30;99.90
12446;DHT22;6287;50.984;7.022;2022-09-28T05:11:13;9.40;99.90
12446;DHT22;6287;50.984;7.022;2022-09-28T05:13:44;9.30;99.90
12446;DHT22;6287;50.984;7.022;2022-09-28T05:16:13;9.40;99.90
12446;DHT22;6287;50.984;7.022;2022-09-28T05:18:42;9.30;99.90
12446;DHT22;6287;50.984;7.022;2022-09-28T05:21:11;9.40;99.90
12446;DHT22;6287;50.984;7.022;2022-09-28T05:23:38;9.30;99.90
12446;DHT22;6287;50.984;7.022;2022-09-28T05:26:04;9.30;99.90
12446;DHT22;6287;50.984;7.022;2022-09-28T05:28:35;9.30;99.90
12446;DHT22;6287;50.984;7.022;2022-09-28T05:31:02;9.30;99.90
12446;DHT22;6287;50.984;7.022;2022-09-28T05:33:28;9.30;99.90
12446;DHT22;6287;50.984;7.022;2022-09-28T05:35:59;9.20;99.90
12446;DHT22;6287;50.984;7.022;2022-09-28T05:38:25;9.20;99.90
12446;DHT22;6287;50.984;7.022;2022-09-28T05:40:51;9.20;99.90
12446;DHT22;6287;50.984;7.022;2022-09-28T05:43:19;9.20;99.90
12446;DHT22;6287;50.984;7.022;2022-09-28T05:45:47;9.20;99.90
12446;DHT22;6287;50.984;7.022;2022-09-28T05:48:15;9.20;99.90
12446;DHT22;6287;50.984;7.022;2022-09-28T05:50:48;9.30;99.90
12446;DHT22;6287;50.984;7.022;2022-09-28T05:53:14;9.30;99.90
12446;DHT22;6287;50.984;7.022;2022-09-28T05:55:41;9.30;99.90
12446;DHT22;6287;50.984;7.022;2022-09-28T05:58:07;9.30;99.90
12446;DHT22;6287;50.984;7.022;2022-09-28T06:00:36;9.40;99.90
12446;DHT22;6287;50.984;7.022;2022-09-28T06:03:05;9.40;99.90
12446;DHT22;6287;50.984;7.022;2022-09-28T06:05:33;9.40;99.90
12446;DHT22;6287;50.984;7.022;2022-09-28T06:08:00;9.40;99.90
12446;DHT22;6287;50.984;7.022;2022-09-28T06:10:28;9.40;99.90
12446;DHT22;6287;50.984;7.022;2022-09-28T06:12:57;9.50;99.90
12446;DHT22;6287;50.984;7.022;2022-09-28T06:15:28;9.50;99.90
12446;DHT22;6287;50.984;7.022;2022-09-28T06:20:33;9.50;99.90
12446;DHT22;6287;50.984;7.022;2022-09-28T06:23:02;9.50;99.90
12446;DHT22;6287;50.984;7.022;2022-09-28T06:25:30;9.40;99.90
12446;DHT22;6287;50.984;7.022;2022-09-28T06:28:01;9.50;99.90
12446;DHT22;6287;50.984;7.022;2022-09-28T06:30:31;9.50;99.90
12446;DHT22;6287;50.984;7.022;2022-09-28T06:32:59;9.50;99.90
12446;DHT22;6287;50.984;7.022;2022-09-28T06:35:27;9.50;99.90
12446;DHT22;6287;50.984;7.022;2022-09-28T06:37:53;9.50;99.90
12446;DHT22;6287;50.984;7.022;2022-09-28T06:40:21;9.50;99.90
12446;DHT22;6287;50.984;7.022;2022-09-28T06:42:55;9.50;99.90
12446;DHT22;6287;50.984;7.022;2022-09-28T06:45:25;9.50;99.90
12446;DHT22;6287;50.984;7.022;2022-09-28T06:47:58;9.60;99.90
12446;DHT22;6287;50.984;7.022;2022-09-28T06:50:29;9.60;99.90
12446;DHT22;6287;50.984;7.022;2022-09-28T06:52:57;9.70;99.90
12446;DHT22;6287;50.984;7.022;2022-09-28T06:55:28;9.70;99.90
12446;DHT22;6287;50.984;7.022;2022-09-28T06:58:06;9.70;99.90
12446;DHT22;6287;50.984;7.022;2022-09-28T07:00:34;9.70;99.90
12446;DHT22;6287;50.984;7.022;2022-09-28T07:03:05;9.70;99.90
12446;DHT22;6287;50.984;7.022;2022-09-28T07:05:33;9.70;99.90
12446;DHT22;6287;50.984;7.022;2022-09-28T07:08:01;9.80;99.90
12446;DHT22;6287;50.984;7.022;2022-09-28T07:10:28;9.70;99.90
12446;DHT22;6287;50.984;7.022;2022-09-28T07:12:55;9.80;99.90
12446;DHT22;6287;50.984;7.022;2022-09-28T07:15:22;9.80;99.90
12446;DHT22;6287;50.984;7.022;2022-09-28T07:17:48;9.80;99.90
12446;DHT22;6287;50.984;7.022;2022-09-28T07:22:40;9.90;99.90
12446;DHT22;6287;50.984;7.022;2022-09-28T07:25:06;9.90;99.90
12446;DHT22;6287;50.984;7.022;2022-09-28T07:30:00;10.00;99.90
12446;DHT22;6287;50.984;7.022;2022-09-28T07:32:26;10.10;99.90
12446;DHT22;6287;50.984;7.022;2022-09-28T07:34:54;10.20;99.90
12446;DHT22;6287;50.984;7.022;2022-09-28T07:39:53;10.30;99.90
12446;DHT22;6287;50.984;7.022;2022-09-28T07:42:37;10.40;99.90
12446;DHT22;6287;50.984;7.022;2022-09-28T07:45:05;10.40;99.90
12446;DHT22;6287;50.984;7.022;2022-09-28T07:49:57;10.60;99.90
12446;DHT22;6287;50.984;7.022;2022-09-28T07:52:23;10.90;99.90
12446;DHT22;6287;50.984;7.022;2022-09-28T07:54:53;10.80;99.90
12446;DHT22;6287;50.984;7.022;2022-09-28T07:57:20;11.00;99.90
12446;DHT22;6287;50.984;7.022;2022-09-28T07:59:47;11.20;99.90
12446;DHT22;6287;50.984;7.022;2022-09-28T08:02:14;11.40;99.90
12446;DHT22;6287;50.984;7.022;2022-09-28T08:04:42;11.60;99.90
12446;DHT22;6287;50.984;7.022;2022-09-28T08:07:10;11.70;99.90
12446;DHT22;6287;50.984;7.022;2022-09-28T08:09:36;11.60;99.90
12446;DHT22;6287;50.984;7.022;2022-09-28T08:12:02;11.70;99.90
12446;DHT22;6287;50.984;7.022;2022-09-28T08:14:29;11.60;99.90
12446;DHT22;6287;50.984;7.022;2022-09-28T08:17:01;11.60;99.90
12446;DHT22;6287;50.984;7.022;2022-09-28T08:19:29;11.70;99.90
12446;DHT22;6287;50.984;7.022;2022-09-28T08:22:18;11.50;99.90
12446;DHT22;6287;50.984;7.022;2022-09-28T08:24:45;11.40;99.90
12446;DHT22;6287;50.984;7.022;2022-09-28T08:27:15;11.40;99.90
12446;DHT22;6287;50.984;7.022;2022-09-28T08:29:43;11.50;99.90
12446;DHT22;6287;50.984;7.022;2022-09-28T08:32:10;11.50;99.90
12446;DHT22;6287;50.984;7.022;2022-09-28T08:34:37;11.50;99.90
12446;DHT22;6287;50.984;7.022;2022-09-28T08:37:07;11.50;99.90
12446;DHT22;6287;50.984;7.022;2022-09-28T08:39:38;11.50;99.90
12446;DHT22;6287;50.984;7.022;2022-09-28T08:44:51;11.40;99.90
12446;DHT22;6287;50.984;7.022;2022-09-28T08:47:33;11.40;99.90
12446;DHT22;6287;50.984;7.022;2022-09-28T08:50:23;11.30;99.90
12446;DHT22;6287;50.984;7.022;2022-09-28T08:52:56;11.30;99.90
12446;DHT22;6287;50.984;7.022;2022-09-28T08:55:30;11.20;99.90
12446;DHT22;6287;50.984;7.022;2022-09-28T09:00:41;11.30;99.90
12446;DHT22;6287;50.984;7.022;2022-09-28T09:03:12;11.30;99.90
12446;DHT22;6287;50.984;7.022;2022-09-28T09:06:04;11.30;99.90
12446;DHT22;6287;50.984;7.022;2022-09-28T09:16:48;11.60;99.90
12446;DHT22;6287;50.984;7.022;2022-09-28T09:22:26;11.90;99.90
12446;DHT22;6287;50.984;7.022;2022-09-28T09:25:02;12.00;99.90
12446;DHT22;6287;50.984;7.022;2022-09-28T09:30:38;12.00;99.90
12446;DHT22;6287;50.984;7.022;2022-09-28T09:33:34;12.00;99.90
12446;DHT22;6287;50.984;7.022;2022-09-28T09:47:09;12.40;99.90
12446;DHT22;6287;50.984;7.022;2022-09-28T09:55:29;12.60;99.90
12446;DHT22;6287;50.984;7.022;2022-09-28T09:58:09;12.70;99.90
12446;DHT22;6287;50.984;7.022;2022-09-28T10:00:40;13.00;99.90
12446;DHT22;6287;50.984;7.022;2022-09-28T10:03:19;13.10;99.90
12446;DHT22;6287;50.984;7.022;2022-09-28T10:05:50;13.10;99.90
12446;DHT22;6287;50.984;7.022;2022-09-28T10:08:18;13.20;99.90
12446;DHT22;6287;50.984;7.022;2022-09-28T10:10:50;13.10;99.90
12446;DHT22;6287;50.984;7.022;2022-09-28T10:13:19;13.00;99.90
12446;DHT22;6287;50.984;7.022;2022-09-28T10:15:47;13.10;99.90
12446;DHT22;6287;50.984;7.022;2022-09-28T10:18:18;13.00;99.90
12446;DHT22;6287;50.984;7.022;2022-09-28T10:20:46;13.00;99.90
12446;DHT22;6287;50.984;7.022;2022-09-28T10:23:25;13.00;99.90
12446;DHT22;6287;50.984;7.022;2022-09-28T10:25:57;13.10;99.90
12446;DHT22;6287;50.984;7.022;2022-09-28T10:29:18;13.20;99.90
12446;DHT22;6287;50.984;7.022;2022-09-28T10:31:37;13.50;99.90
12446;DHT22;6287;50.984;7.022;2022-09-28T10:34:05;13.40;99.90
12446;DHT22;6287;50.984;7.022;2022-09-28T10:36:41;13.80;99.90
12446;DHT22;6287;50.984;7.022;2022-09-28T10:42:12;14.20;99.90
12446;DHT22;6287;50.984;7.022;2022-09-28T10:44:55;14.50;99.90
12446;DHT22;6287;50.984;7.022;2022-09-28T10:47:28;14.90;99.90
12446;DHT22;6287;50.984;7.022;2022-09-28T10:49:58;14.90;99.90
12446;DHT22;6287;50.984;7.022;2022-09-28T10:55:24;15.50;99.90
12446;DHT22;6287;50.984;7.022;2022-09-28T10:57:51;15.50;99.90
12446;DHT22;6287;50.984;7.022;2022-09-28T11:00:37;15.70;99.90
12446;DHT22;6287;50.984;7.022;2022-09-28T11:03:16;15.80;99.90
12446;DHT22;6287;50.984;7.022;2022-09-28T11:06:02;15.70;99.90
12446;DHT22;6287;50.984;7.022;2022-09-28T11:08:36;15.60;99.90
12446;DHT22;6287;50.984;7.022;2022-09-28T11:11:23;15.60;99.90
12446;DHT22;6287;50.984;7.022;2022-09-28T11:13:52;15.50;99.90
12446;DHT22;6287;50.984;7.022;2022-09-28T11:16:30;15.50;99.90
12446;DHT22;6287;50.984;7.022;2022-09-28T11:21:46;15.60;99.90
12446;DHT22;6287;50.984;7.022;2022-09-28T11:26:44;16.80;99.90
12446;DHT22;6287;50.984;7.022;2022-09-28T11:29:25;16.80;99.90
12446;DHT22;6287;50.984;7.022;2022-09-28T11:32:01;17.40;99.90
12446;DHT22;6287;50.984;7.022;2022-09-28T11:34:42;17.20;99.90
12446;DHT22;6287;50.984;7.022;2022-09-28T11:42:46;16.90;99.90
12446;DHT22;6287;50.984;7.022;2022-09-28T11:48:11;16.30;99.90
12446;DHT22;6287;50.984;7.022;2022-09-28T11:59:29;15.30;99.90
12446;DHT22;6287;50.984;7.022;2022-09-28T12:01:56;15.20;99.90
12446;DHT22;6287;50.984;7.022;2022-09-28T12:15:20;15.10;99.90
12446;DHT22;6287;50.984;7.022;2022-09-28T12:17:56;15.00;99.90
12446;DHT22;6287;50.984;7.022;2022-09-28T12:25:24;14.70;99.90
12446;DHT22;6287;50.984;7.022;2022-09-28T12:27:59;14.80;99.90
12446;DHT22;6287;50.984;7.022;2022-09-28T12:30:29;14.90;99.90
12446;DHT22;6287;50.984;7.022;2022-09-28T12:52:57;15.20;99.90
12446;DHT22;6287;50.984;7.022;2022-09-28T12:56:01;15.30;99.90
12446;DHT22;6287;50.984;7.022;2022-09-28T13:07:02;15.50;99.90
12446;DHT22;6287;50.984;7.022;2022-09-28T13:17:39;15.30;99.90
12446;DHT22;6287;50.984;7.022;2022-09-28T13:23:29;15.90;99.90
12446;DHT22;6287;50.984;7.022;2022-09-28T13:26:02;16.50;99.90
12446;DHT22;6287;50.984;7.022;2022-09-28T13:28:38;17.30;99.90
12446;DHT22;6287;50.984;7.022;2022-09-28T13:31:10;17.40;99.90
12446;DHT22;6287;50.984;7.022;2022-09-28T13:33:39;17.20;99.90
12446;DHT22;6287;50.984;7.022;2022-09-28T13:38:58;16.50;99.90
12446;DHT22;6287;50.984;7.022;2022-09-28T13:55:18;15.20;99.90
12446;DHT22;6287;50.984;7.022;2022-09-28T14:00:45;14.70;99.90
12446;DHT22;6287;50.984;7.022;2022-09-28T14:09:04;14.30;99.90
12446;DHT22;6287;50.984;7.022;2022-09-28T14:16:43;14.60;99.90
12446;DHT22;6287;50.984;7.022;2022-09-28T14:25:04;15.20;99.90
12446;DHT22;6287;50.984;7.022;2022-09-28T14:28:12;15.50;99.90
12446;DHT22;6287;50.984;7.022;2022-09-28T14:38:30;15.80;99.90
12446;DHT22;6287;50.984;7.022;2022-09-28T14:41:40;15.60;99.90
12446;DHT22;6287;50.984;7.022;2022-09-28T14:44:10;15.20;99.90
12446;DHT22;6287;50.984;7.022;2022-09-28T14:46:37;15.20;99.90
12446;DHT22;6287;50.984;7.022;2022-09-28T14:59:43;14.30;99.90
12446;DHT22;6287;50.984;7.022;2022-09-28T15:02:13;14.10;99.90
12446;DHT22;6287;50.984;7.022;2022-09-28T15:05:08;13.70;99.90
12446;DHT22;6287;50.984;7.022;2022-09-28T15:07:52;13.40;99.90
12446;DHT22;6287;50.984;7.022;2022-09-28T15:10:38;13.20;99.90
12446;DHT22;6287;50.984;7.022;2022-09-28T15:13:17;13.00;99.90
12446;DHT22;6287;50.984;7.022;2022-09-28T15:15:48;12.90;99.90
12446;DHT22;6287;50.984;7.022;2022-09-28T15:20:51;12.90;99.90
12446;DHT22;6287;50.984;7.022;2022-09-28T15:23:47;12.60;99.90
12446;DHT22;6287;50.984;7.022;2022-09-28T15:26:23;12.60;99.90
12446;DHT22;6287;50.984;7.022;2022-09-28T15:28:57;12.40;99.90
12446;DHT22;6287;50.984;7.022;2022-09-28T15:31:25;12.30;99.90
12446;DHT22;6287;50.984;7.022;2022-09-28T15:33:51;12.30;99.90
12446;DHT22;6287;50.984;7.022;2022-09-28T15:36:41;12.20;99.90
12446;DHT22;6287;50.984;7.022;2022-09-28T15:39:21;12.20;99.90
12446;DHT22;6287;50.984;7.022;2022-09-28T15:41:50;12.40;99.90
12446;DHT22;6287;50.984;7.022;2022-09-28T15:44:35;12.40;99.90
12446;DHT22;6287;50.984;7.022;2022-09-28T15:47:10;12.60;99.90
12446;DHT22;6287;50.984;7.022;2022-09-28T15:49:45;12.90;99.90
12446;DHT22;6287;50.984;7.022;2022-09-28T15:54:56;13.20;99.90
12446;DHT22;6287;50.984;7.022;2022-09-28T15:59:57;13.30;99.90
12446;DHT22;6287;50.984;7.022;2022-09-28T16:02:27;13.20;99.90
12446;DHT22;6287;50.984;7.022;2022-09-28T16:12:53;12.90;99.90
12446;DHT22;6287;50.984;7.022;2022-09-28T16:15:33;12.70;99.90
12446;DHT22;6287;50.984;7.022;2022-09-28T16:18:15;12.60;99.90
12446;DHT22;6287;50.984;7.022;2022-09-28T16:20:46;12.60;99.90
12446;DHT22;6287;50.984;7.022;2022-09-28T16:25:57;12.30;99.90
12446;DHT22;6287;50.984;7.022;2022-09-28T16:33:57;12.00;99.90
12446;DHT22;6287;50.984;7.022;2022-09-28T16:36:28;11.70;99.90
12446;DHT22;6287;50.984;7.022;2022-09-28T16:39:02;11.60;99.90
12446;DHT22;6287;50.984;7.022;2022-09-28T16:41:28;11.60;99.90
12446;DHT22;6287;50.984;7.022;2022-09-28T16:43:59;11.50;99.90
12446;DHT22;6287;50.984;7.022;2022-09-28T16:46:33;11.40;99.90
12446;DHT22;6287;50.984;7.022;2022-09-28T16:49:10;11.40;99.90
12446;DHT22;6287;50.984;7.022;2022-09-28T16:51:37;11.30;99.90
12446;DHT22;6287;50.984;7.022;2022-09-28T16:54:20;11.30;99.90
12446;DHT22;6287;50.984;7.022;2022-09-28T16:57:08;11.20;99.90
12446;DHT22;6287;50.984;7.022;2022-09-28T16:59:36;11.20;99.90
12446;DHT22;6287;50.984;7.022;2022-09-28T17:02:20;11.20;99.90
12446;DHT22;6287;50.984;7.022;2022-09-28T17:04:51;11.20;99.90
12446;DHT22;6287;50.984;7.022;2022-09-28T17:07:19;11.20;99.90
12446;DHT22;6287;50.984;7.022;2022-09-28T17:09:47;11.20;99.90
12446;DHT22;6287;50.984;7.022;2022-09-28T17:12:20;11.20;99.90
12446;DHT22;6287;50.984;7.022;2022-09-28T17:14:47;11.20;99.90
12446;DHT22;6287;50.984;7.022;2022-09-28T17:17:15;11.20;99.90
12446;DHT22;6287;50.984;7.022;2022-09-28T17:19:43;11.20;99.90
12446;DHT22;6287;50.984;7.022;2022-09-28T17:22:13;11.20;99.90
12446;DHT22;6287;50.984;7.022;2022-09-28T17:24:41;11.20;99.90
12446;DHT22;6287;50.984;7.022;2022-09-28T17:27:13;11.10;99.90
12446;DHT22;6287;50.984;7.022;2022-09-28T17:29:40;11.10;99.90
12446;DHT22;6287;50.984;7.022;2022-09-28T17:32:12;11.00;99.90
12446;DHT22;6287;50.984;7.022;2022-09-28T17:34:43;11.00;99.90
12446;DHT22;6287;50.984;7.022;2022-09-28T17:37:11;10.90;99.90
12446;DHT22;6287;50.984;7.022;2022-09-28T17:39:37;10.90;99.90
12446;DHT22;6287;50.984;7.022;2022-09-28T17:42:08;10.90;99.90
12446;DHT22;6287;50.984;7.022;2022-09-28T17:44:38;10.80;99.90
12446;DHT22;6287;50.984;7.022;2022-09-28T17:47:05;10.80;99.90
12446;DHT22;6287;50.984;7.022;2022-09-28T17:49:31;10.70;99.90
12446;DHT22;6287;50.984;7.022;2022-09-28T17:51:59;10.60;99.90
12446;DHT22;6287;50.984;7.022;2022-09-28T17:54:27;10.60;99.90
12446;DHT22;6287;50.984;7.022;2022-09-28T17:56:52;10.60;99.90
12446;DHT22;6287;50.984;7.022;2022-09-28T17:59:18;10.40;99.90
12446;DHT22;6287;50.984;7.022;2022-09-28T18:01:46;10.40;99.90
12446;DHT22;6287;50.984;7.022;2022-09-28T18:04:13;10.40;99.90
12446;DHT22;6287;50.984;7.022;2022-09-28T18:06:41;10.30;99.90
12446;DHT22;6287;50.984;7.022;2022-09-28T18:09:12;10.30;99.90
12446;DHT22;6287;50.984;7.022;2022-09-28T18:11:38;10.20;99.90
12446;DHT22;6287;50.984;7.022;2022-09-28T18:14:08;10.20;99.90
12446;DHT22;6287;50.984;7.022;2022-09-28T18:16:34;10.10;99.90
12446;DHT22;6287;50.984;7.022;2022-09-28T18:19:00;10.10;99.90
12446;DHT22;6287;50.984;7.022;2022-09-28T18:21:26;10.10;99.90
12446;DHT22;6287;50.984;7.022;2022-09-28T18:23:53;10.00;99.90
12446;DHT22;6287;50.984;7.022;2022-09-28T18:26:22;9.90;99.90
12446;DHT22;6287;50.984;7.022;2022-09-28T18:28:52;9.90;99.90
12446;DHT22;6287;50.984;7.022;2022-09-28T18:31:20;9.80;99.90
12446;DHT22;6287;50.984;7.022;2022-09-28T18:33:55;9.80;99.90
12446;DHT22;6287;50.984;7.022;2022-09-28T18:36:27;9.80;99.90
12446;DHT22;6287;50.984;7.022;2022-09-28T18:38:52;9.80;99.90
12446;DHT22;6287;50.984;7.022;2022-09-28T18:41:21;9.80;99.90
12446;DHT22;6287;50.984;7.022;2022-09-28T18:43:48;9.70;99.90
12446;DHT22;6287;50.984;7.022;2022-09-28T18:46:14;9.70;99.90
12446;DHT22;6287;50.984;7.022;2022-09-28T18:48:43;9.70;99.90
12446;DHT22;6287;50.984;7.022;2022-09-28T18:51:11;9.60;99.90
12446;DHT22;6287;50.984;7.022;2022-09-28T18:53:39;9.70;99.90
12446;DHT22;6287;50.984;7.022;2022-09-28T18:56:10;9.70;99.90
12446;DHT22;6287;50.984;7.022;2022-09-28T18:58:38;9.60;99.90
12446;DHT22;6287;50.984;7.022;2022-09-28T19:03:33;9.60;99.90
12446;DHT22;6287;50.984;7.022;2022-09-28T19:05:58;9.70;99.90
12446;DHT22;6287;50.984;7.022;2022-09-28T19:08:24;9.60;99.90
12446;DHT22;6287;50.984;7.022;2022-09-28T19:10:49;9.60;99.90
12446;DHT22;6287;50.984;7.022;2022-09-28T19:13:15;9.60;99.90
12446;DHT22;6287;50.984;7.022;2022-09-28T19:15:45;9.60;99.90
12446;DHT22;6287;50.984;7.022;2022-09-28T19:18:13;9.60;99.90
12446;DHT22;6287;50.984;7.022;2022-09-28T19:20:38;9.60;99.90
12446;DHT22;6287;50.984;7.022;2022-09-28T19:23:06;9.60;99.90
12446;DHT22;6287;50.984;7.022;2022-09-28T19:25:34;9.60;99.90
12446;DHT22;6287;50.984;7.022;2022-09-28T19:28:00;9.60;99.90
12446;DHT22;6287;50.984;7.022;2022-09-28T19:30:28;9.60;99.90
12446;DHT22;6287;50.984;7.022;2022-09-28T19:32:53;9.60;99.90
12446;DHT22;6287;50.984;7.022;2022-09-28T19:35:19;9.50;99.90
12446;DHT22;6287;50.984;7.022;2022-09-28T19:40:11;9.50;99.90
12446;DHT22;6287;50.984;7.022;2022-09-28T19:42:36;9.60;99.90
12446;DHT22;6287;50.984;7.022;2022-09-28T19:45:04;9.60;99.90
12446;DHT22;6287;50.984;7.022;2022-09-28T19:47:34;9.50;99.90
12446;DHT22;6287;50.984;7.022;2022-09-28T19:50:02;9.50;99.90
12446;DHT22;6287;50.984;7.022;2022-09-28T19:52:27;9.50;99.90
12446;DHT22;6287;50.984;7.022;2022-09-28T19:54:53;9.60;99.90
12446;DHT22;6287;50.984;7.022;2022-09-28T19:57:26;9.60;99.90
12446;DHT22;6287;50.984;7.022;2022-09-28T19:59:52;9.60;99.90
12446;DHT22;6287;50.984;7.022;2022-09-28T20:02:20;9.60;99.90
12446;DHT22;6287;50.984;7.022;2022-09-28T20:04:47;9.60;99.90
12446;DHT22;6287;50.984;7.022;2022-09-28T20:07:15;9.50;99.90
12446;DHT22;6287;50.984;7.022;2022-09-28T20:09:43;9.60;99.90
12446;DHT22;6287;50.984;7.022;2022-09-28T20:12:08;9.50;99.90
12446;DHT22;6287;50.984;7.022;2022-09-28T20:14:34;9.50;99.90
12446;DHT22;6287;50.984;7.022;2022-09-28T20:17:00;9.50;99.90
12446;DHT22;6287;50.984;7.022;2022-09-28T20:19:25;9.60;99.90
12446;DHT22;6287;50.984;7.022;2022-09-28T20:21:51;9.50;99.90
12446;DHT22;6287;50.984;7.022;2022-09-28T20:24:22;9.50;99.90
12446;DHT22;6287;50.984;7.022;2022-09-28T20:26:50;9.50;99.90
12446;DHT22;6287;50.984;7.022;2022-09-28T20:29:16;9.50;99.90
12446;DHT22;6287;50.984;7.022;2022-09-28T20:31:42;9.50;99.90
12446;DHT22;6287;50.984;7.022;2022-09-28T20:34:09;9.50;99.90
12446;DHT22;6287;50.984;7.022;2022-09-28T20:36:38;9.50;99.90
12446;DHT22;6287;50.984;7.022;2022-09-28T20:39:04;9.40;99.90
12446;DHT22;6287;50.984;7.022;2022-09-28T20:41:30;9.50;99.90
12446;DHT22;6287;50.984;7.022;2022-09-28T20:44:03;9.50;99.90